createdAt,value
2023-03-07T00:01:42.145Z,13.38
2023-03-07T00:06:43.663Z,13.13
2023-03-07T00:11:45.069Z,13.20
2023-03-07T00:16:46.473Z,13.30
2023-03-07T00:21:47.982Z,12.88
2023-03-07T00:26:49.387Z,13.43
2023-03-07T00:31:50.944Z,12.15
2023-03-07T00:36:52.886Z,12.82
2023-03-07T00:41:54.278Z,13.18
2023-03-07T00:46:56.322Z,12.75
2023-03-07T00:51:57.812Z,12.85
2023-03-07T00:56:59.832Z,13.15
2023-03-07T01:02:01.402Z,13.23
2023-03-07T01:07:02.970Z,12.98
2023-03-07T01:12:07.122Z,13.68
2023-03-07T01:17:08.571Z,14.35
2023-03-07T01:22:10.632Z,14.52
2023-03-07T01:27:12.202Z,13.95
2023-03-07T01:32:14.224Z,12.70
2023-03-07T01:37:15.904Z,14.20
2023-03-07T01:42:17.338Z,14.57
2023-03-07T01:47:18.968Z,14.20
2023-03-07T01:52:39.660Z,14.60
2023-03-07T01:57:45.770Z,14.98
2023-03-07T02:02:51.710Z,15.55
2023-03-07T02:07:59.591Z,15.75
2023-03-07T02:13:03.844Z,14.65
2023-03-07T02:18:06.439Z,15.35
2023-03-07T02:23:13.618Z,14.73
2023-03-07T02:28:17.273Z,15.07
2023-03-07T02:38:22.598Z,14.55
2023-03-07T02:43:24.852Z,14.45
2023-03-07T02:48:26.294Z,14.33
2023-03-07T02:53:28.272Z,15.07
2023-03-07T02:58:29.882Z,14.20
2023-03-07T03:03:31.464Z,12.45
2023-03-07T03:08:32.897Z,13.63
2023-03-07T03:13:34.706Z,13.32
2023-03-07T03:18:38.537Z,13.07
2023-03-07T03:23:40.792Z,13.18
2023-03-07T03:28:44.092Z,13.77
2023-03-07T03:33:45.866Z,13.63
2023-03-07T03:38:47.644Z,12.77
2023-03-07T03:43:49.318Z,12.98
2023-03-07T03:48:53.349Z,11.85
2023-03-07T03:53:59.610Z,11.93
2023-03-07T03:59:01.980Z,12.05
2023-03-07T04:04:04.800Z,12.38
2023-03-07T04:09:06.522Z,11.05
2023-03-07T04:14:10.442Z,12.40
2023-03-07T04:19:12.936Z,11.52
2023-03-07T04:24:14.502Z,11.80
2023-03-07T04:29:16.239Z,11.85
2023-03-07T04:34:24.422Z,11.02
2023-03-07T04:39:26.028Z,11.63
2023-03-07T04:44:27.688Z,11.80
2023-03-07T04:49:29.186Z,11.73
2023-03-07T04:54:30.744Z,12.63
2023-03-07T04:59:36.089Z,12.67
2023-03-07T05:04:37.709Z,12.07
2023-03-07T05:09:39.344Z,11.52
2023-03-07T05:14:40.861Z,10.73
2023-03-07T05:19:42.656Z,11.70
2023-03-07T05:24:44.638Z,10.50
2023-03-07T05:29:46.434Z,11.63
2023-03-07T05:34:48.119Z,10.90
2023-03-07T05:39:52.390Z,11.23
2023-03-07T05:44:53.883Z,11.55
2023-03-07T05:49:55.715Z,11.52
2023-03-07T05:54:57.533Z,10.85
2023-03-07T05:59:59.366Z,11.05
2023-03-07T06:05:00.955Z,11.23
2023-03-07T06:10:02.566Z,11.45
2023-03-07T06:15:05.010Z,12.32
2023-03-07T06:20:09.818Z,11.20
2023-03-07T06:25:11.475Z,12.35
2023-03-07T06:30:13.532Z,12.10
2023-03-07T06:35:16.242Z,11.00
2023-03-07T06:40:17.813Z,12.25
2023-03-07T06:45:19.456Z,11.93
2023-03-07T06:50:34.522Z,11.40
2023-03-07T06:55:37.286Z,10.70
2023-03-07T07:00:38.965Z,10.15
2023-03-07T07:05:40.725Z,10.00
2023-03-07T07:10:42.306Z,10.07
2023-03-07T07:15:46.987Z,8.85
2023-03-07T07:20:56.035Z,9.27
2023-03-07T07:25:58.694Z,9.77
2023-03-07T07:31:00.312Z,9.75
2023-03-07T07:36:03.332Z,8.30
2023-03-07T07:41:05.837Z,8.43
2023-03-07T07:46:08.801Z,8.75
2023-03-07T07:51:10.706Z,8.57
2023-03-07T07:56:13.258Z,7.97
2023-03-07T08:01:23.793Z,7.80
2023-03-07T08:06:27.780Z,8.23
2023-03-07T08:11:29.245Z,8.38
2023-03-07T08:16:30.694Z,8.25
2023-03-07T08:21:32.192Z,7.60
2023-03-07T08:26:33.684Z,7.57
2023-03-07T08:31:35.432Z,6.70
2023-03-07T08:36:37.110Z,7.47
2023-03-07T08:41:39.098Z,7.00
2023-03-07T08:46:40.624Z,6.68
2023-03-07T08:51:42.130Z,7.30
2023-03-07T08:56:43.530Z,6.82
2023-03-07T09:01:45.044Z,6.13
2023-03-07T09:06:46.486Z,5.93
2023-03-07T09:11:48.200Z,5.65
2023-03-07T09:16:49.989Z,5.90
2023-03-07T09:21:51.470Z,6.40
2023-03-07T09:26:52.979Z,6.10
2023-03-07T09:31:54.597Z,6.53
2023-03-07T09:36:56.046Z,6.82
2023-03-07T09:42:11.200Z,6.60
2023-03-07T09:47:50.325Z,6.90
2023-03-07T09:52:57.568Z,6.97
2023-03-07T09:58:03.863Z,6.70
2023-03-07T10:03:33.846Z,7.15
2023-03-07T10:08:35.330Z,8.88
2023-03-07T10:13:47.678Z,7.88
2023-03-07T10:18:54.989Z,7.37
2023-03-07T10:24:14.397Z,8.07
2023-03-07T10:29:22.405Z,8.98
2023-03-07T10:34:32.041Z,8.20
2023-03-07T10:39:44.697Z,8.90
2023-03-07T10:44:48.784Z,8.38
2023-03-07T10:49:54.437Z,7.30
2023-03-07T10:55:34.530Z,7.97
2023-03-07T11:00:37.381Z,7.18
2023-03-07T11:05:40.584Z,7.95
2023-03-07T11:10:42.042Z,7.97
2023-03-07T11:15:45.098Z,7.97
2023-03-07T11:30:58.159Z,7.85
2023-03-07T11:36:13.846Z,7.88
2023-03-07T11:41:26.840Z,7.25
2023-03-07T11:46:41.095Z,7.32
2023-03-07T11:52:00.673Z,7.80
2023-03-07T11:57:50.339Z,6.95
2023-03-07T12:03:21.199Z,7.25
2023-03-07T12:08:40.526Z,7.88
2023-03-07T12:13:49.776Z,7.03
2023-03-07T12:19:22.358Z,7.60
2023-03-07T12:24:28.866Z,7.23
2023-03-07T12:29:38.030Z,6.85
2023-03-07T12:34:49.627Z,6.78
2023-03-07T12:39:57.710Z,7.15
2023-03-07T12:45:24.370Z,8.45
2023-03-07T12:50:33.977Z,7.03
2023-03-07T12:55:47.540Z,7.20
2023-03-07T13:00:56.020Z,6.85
2023-03-07T13:05:57.900Z,5.80
2023-03-07T13:10:59.382Z,5.70
2023-03-07T13:16:05.023Z,6.82
2023-03-07T13:21:12.374Z,5.88
2023-03-07T13:26:22.639Z,5.93
2023-03-07T13:31:28.980Z,5.32
2023-03-07T13:36:34.436Z,5.70
2023-03-07T13:41:50.057Z,5.88
2023-03-07T13:46:54.058Z,6.10
2023-03-07T13:52:32.258Z,6.00
2023-03-07T13:57:38.104Z,5.80
2023-03-07T14:02:43.457Z,6.15
2023-03-07T14:07:51.341Z,6.20
2023-03-07T14:13:05.558Z,5.68
2023-03-07T14:18:25.492Z,6.35
2023-03-07T14:23:56.233Z,5.85
2023-03-07T14:29:02.114Z,6.03
2023-03-07T14:34:31.434Z,5.60
2023-03-07T14:40:08.666Z,6.55
2023-03-07T14:45:19.875Z,6.05
2023-03-07T14:50:29.589Z,5.68
2023-03-07T14:55:43.067Z,5.30
2023-03-07T15:00:44.809Z,5.93
2023-03-07T15:05:47.948Z,5.10
2023-03-07T15:10:58.382Z,5.53
2023-03-07T15:16:03.591Z,5.25
2023-03-07T15:21:07.783Z,5.32
2023-03-07T15:26:14.952Z,4.95
2023-03-07T15:31:16.457Z,4.32
2023-03-07T15:36:24.556Z,4.07
2023-03-07T15:41:36.184Z,3.70
2023-03-07T15:46:50.711Z,4.78
2023-03-07T15:51:55.453Z,4.13
2023-03-07T15:57:00.455Z,4.40
2023-03-07T16:02:33.261Z,4.50
2023-03-07T16:07:34.846Z,4.10
2023-03-07T16:12:39.452Z,4.28
2023-03-07T16:17:41.752Z,4.20
2023-03-07T16:22:44.387Z,4.37
2023-03-07T16:27:58.144Z,4.30
2023-03-07T16:32:59.691Z,4.40
2023-03-07T16:38:01.513Z,4.00
2023-03-07T16:43:03.128Z,4.20
2023-03-07T16:48:04.832Z,4.18
2023-03-07T16:53:06.324Z,3.78
2023-03-07T16:58:20.552Z,4.38
2023-03-07T17:03:22.066Z,4.95
2023-03-07T17:08:23.914Z,4.32
2023-03-07T17:13:25.346Z,4.93
2023-03-07T17:18:29.476Z,4.80
2023-03-07T17:23:33.818Z,3.50
2023-03-07T17:28:35.392Z,2.58
2023-03-07T17:33:36.836Z,1.45
2023-03-07T17:38:38.650Z,1.60
2023-03-07T17:43:40.179Z,1.02
2023-03-07T17:48:41.606Z,1.00
2023-03-07T17:53:43.027Z,1.00
2023-03-07T17:58:44.431Z,1.10
2023-03-07T18:03:45.871Z,1.20
2023-03-07T18:08:47.355Z,1.40
2023-03-07T18:13:49.026Z,1.23
2023-03-07T18:18:59.316Z,1.50
2023-03-07T18:24:01.839Z,1.77
2023-03-07T18:29:04.369Z,1.88
2023-03-07T18:34:05.828Z,1.80
2023-03-07T18:39:08.470Z,2.22
2023-03-07T18:44:10.005Z,3.00
2023-03-07T18:49:11.583Z,3.55
2023-03-07T18:54:13.947Z,41.03
2023-03-07T18:59:16.615Z,2.40
2023-03-07T19:04:18.205Z,3.70
2023-03-07T19:09:20.341Z,5.43
2023-03-07T19:14:21.870Z,4.25
2023-03-07T19:19:23.278Z,3.88
2023-03-07T19:24:24.715Z,4.32
2023-03-07T19:29:26.161Z,4.10
2023-03-07T19:34:27.797Z,2.47
2023-03-07T19:39:29.201Z,2.95
2023-03-07T19:44:30.654Z,3.13
2023-03-07T19:49:32.097Z,2.83
2023-03-07T19:54:33.626Z,3.63
2023-03-07T19:59:35.044Z,3.42
2023-03-07T20:04:36.567Z,3.30
2023-03-07T20:09:38.123Z,3.00
2023-03-07T20:14:42.669Z,2.92
2023-03-07T20:19:44.232Z,3.15
2023-03-07T20:24:49.552Z,2.92
2023-03-07T20:29:51.412Z,3.40
2023-03-07T20:34:53.327Z,2.78
2023-03-07T20:39:55.571Z,3.03
2023-03-07T20:44:56.980Z,3.60
2023-03-07T20:49:58.389Z,3.25
2023-03-07T20:54:59.889Z,4.15
2023-03-07T21:00:01.316Z,3.22
2023-03-07T21:05:03.387Z,3.78
2023-03-07T21:10:05.003Z,3.55
2023-03-07T21:15:08.000Z,3.47
2023-03-07T21:20:10.375Z,3.90
2023-03-07T21:25:11.853Z,4.87
2023-03-07T21:30:13.466Z,5.10
2023-03-07T21:35:15.313Z,5.00
2023-03-07T21:40:16.951Z,5.78
2023-03-07T21:45:18.393Z,5.35
2023-03-07T21:50:20.027Z,6.80
2023-03-07T21:55:23.551Z,6.25
2023-03-07T22:00:25.070Z,5.47
2023-03-07T22:05:26.518Z,6.53
2023-03-07T22:10:27.912Z,5.28
2023-03-07T22:15:29.329Z,5.78
2023-03-07T22:20:30.903Z,6.00
2023-03-07T22:25:33.854Z,6.47
2023-03-07T22:30:35.629Z,7.45
2023-03-07T22:35:37.152Z,6.30
2023-03-07T22:40:39.349Z,7.20
2023-03-07T22:45:40.768Z,7.65
2023-03-07T22:50:42.428Z,6.85
2023-03-07T22:55:44.713Z,6.32
2023-03-07T23:00:46.212Z,5.93
2023-03-07T23:05:47.625Z,4.63
2023-03-07T23:10:49.050Z,3.85
2023-03-07T23:15:50.497Z,3.90
2023-03-07T23:20:51.960Z,3.75
2023-03-07T23:25:53.423Z,4.13
2023-03-07T23:30:54.836Z,3.80
2023-03-07T23:35:59.322Z,3.97
2023-03-07T23:41:00.842Z,3.72
2023-03-07T23:46:02.263Z,3.70
2023-03-07T23:51:03.842Z,3.05
2023-03-07T23:56:10.129Z,2.55
